createdAt,value
2018-08-22T13:54:50.449Z,0.365
2018-08-22T13:56:50.753Z,0.365
2018-08-22T14:08:49.928Z,0.604
2018-08-22T14:10:50.122Z,0.177
2018-08-22T14:12:50.259Z,0.502
2018-08-22T14:14:50.423Z,0.291
2018-08-22T14:16:49.831Z,0.291
2018-08-22T14:18:50.157Z,0.376
2018-08-22T14:20:50.310Z,0.302
2018-08-22T14:22:50.478Z,0.342
2018-08-22T14:24:50.741Z,0.342
2018-08-22T14:26:50.161Z,0.342
2018-08-22T14:28:50.330Z,0.194
2018-08-22T14:30:50.583Z,0.205
2018-08-22T14:32:50.730Z,0.319
2018-08-22T14:34:50.352Z,0.234
2018-08-22T14:36:50.737Z,0.308
2018-08-22T14:38:49.959Z,0.205
2018-08-22T14:40:50.179Z,0.296
2018-08-22T14:42:50.419Z,0.205
2018-08-22T14:44:50.722Z,0.342
2018-08-22T14:46:50.281Z,0.234
2018-08-22T14:48:50.624Z,0.296
2018-08-22T14:50:50.723Z,0.188
2018-08-22T14:52:49.935Z,0.262
2018-08-22T14:54:50.078Z,0.177
2018-08-22T14:56:50.385Z,0.296
2018-08-22T14:58:50.612Z,0.222
2018-08-22T15:00:49.839Z,0.365
2018-08-22T15:02:51.954Z,0.239
2018-08-22T15:04:50.666Z,0.182
2018-08-22T15:06:50.056Z,0.097
2018-08-22T15:08:50.480Z,0.171
2018-08-22T15:10:50.340Z,0.137
2018-08-22T15:12:51.177Z,0.137
2018-08-22T15:14:50.621Z,0.331
2018-08-22T15:16:50.048Z,0.331
2018-08-22T15:18:50.168Z,0.200
2018-08-22T15:20:50.494Z,0.200
2018-08-22T15:22:50.713Z,0.251
2018-08-22T15:24:50.499Z,0.205
2018-08-22T15:26:49.999Z,0.131
2018-08-22T15:28:50.078Z,0.131
2018-08-22T15:30:50.298Z,0.182
2018-08-22T15:32:50.436Z,0.125
2018-08-22T15:34:49.949Z,0.063
2018-08-22T15:36:50.216Z,0.063
2018-08-22T15:38:50.304Z,0.148
2018-08-22T15:40:50.693Z,0.000
2018-08-22T15:42:50.062Z,0.000
2018-08-22T15:44:50.226Z,0.000
2018-08-22T15:46:50.561Z,0.000
2018-08-22T15:48:50.628Z,0.000
2018-08-22T15:50:49.845Z,0.000
2018-08-22T15:52:50.069Z,0.000
2018-08-22T15:54:50.273Z,0.000
2018-08-22T15:56:50.586Z,0.011
2018-08-22T15:58:50.129Z,0.000
2018-08-22T16:00:50.589Z,0.000
2018-08-22T16:02:50.734Z,0.000
2018-08-22T16:04:50.366Z,0.000
2018-08-22T16:06:49.842Z,0.000
2018-08-22T16:08:50.708Z,0.068
2018-08-22T16:10:50.024Z,0.125
2018-08-22T16:12:50.329Z,0.125
2018-08-22T16:14:50.495Z,0.000
2018-08-22T16:16:49.965Z,0.103
2018-08-22T16:18:50.063Z,0.103
2018-08-22T16:20:50.203Z,0.103
